This is the latest recevied weather packets stored in our database for station/object KJ5FA-10. If no packets are shown the sender has not sent any weather packets the latest 10 day(s).
| Time | Temp. | Humidity | Pressure | Rain* | Wind** | Luminosity | Snow |
|---|---|---|---|---|---|---|---|
| 1777814671 | 10.56° C | 79% | 1023.7 hPa | 0 mm | - | - | - |
| 1777813771 | 10° C | 83% | 1023.6 hPa | 0 mm | - | - | - |
| 1777811971 | 7.22° C | 88% | 1023.6 hPa | 0 mm | - | - | - |
| 1777811071 | 7.22° C | 89% | 1023.4 hPa | 0 mm | - | - | - |
| 1777810173 | 6.67° C | 88% | 1023.2 hPa | 0 mm | - | - | - |
| 1777808371 | 6.11° C | 91% | 1023 hPa | 0 mm | - | - | - |
| 1777807471 | 6.67° C | 90% | 1022.9 hPa | 0 mm | - | - | - |
| 1777806572 | 6.67° C | 90% | 1022.9 hPa | 0 mm | - | - | - |
| 1777805671 | 6.67° C | 90% | 1022.5 hPa | 0 mm | - | - | - |
| 1777804771 | 6.67° C | 89% | 1022.4 hPa | 0 mm | - | - | - |
| 1777803872 | 6.67° C | 90% | 1022.2 hPa | 0 mm | - | - | - |
| 1777802971 | 6.67° C | 92% | 1022.2 hPa | 0 mm | - | - | - |
| 1777802073 | 6.67° C | 92% | 1022.1 hPa | 0 mm | - | - | - |
| 1777801171 | 6.67° C | 91% | 1022.2 hPa | 0 mm | - | - | - |
| 1777800271 | 7.22° C | 91% | 1022.4 hPa | 0 mm | - | - | - |
| 1777799371 | 7.22° C | 90% | 1022 hPa | 0 mm | - | - | - |
| 1777798471 | 7.78° C | 89% | 1022.1 hPa | 0 mm | - | - | - |
| 1777797570 | 8.33° C | 88% | 1022.1 hPa | 0 mm | - | - | - |
| 1777796671 | 8.33° C | 88% | 1022 hPa | 0 mm | - | - | - |
| 1777795771 | 7.78° C | 89% | 1022.3 hPa | 0 mm | - | - | - |
| 1777794870 | 8.33° C | 88% | 1022 hPa | 0 mm | - | - | - |
| 1777793972 | 8.33° C | 87% | 1022.2 hPa | 0 mm | - | - | - |
| 1777793070 | 8.33° C | 85% | 1022 hPa | 0 mm | - | - | - |
| 1777792350 | 8.89° C | 84% | 1022.1 hPa | 0 mm | - | - | - |
| 1777791276 | 9.44° C | 82% | 1022.2 hPa | 0 mm | - | - | - |
* Rain latest hour (hover to see other rain measurements)
** Current wind speed in m/s (hover to see current wind gust speed)